createdAt,value
2018-06-04T00:01:23.646Z,95463.00
2018-06-04T00:03:54.686Z,95461.00
2018-06-04T00:06:25.874Z,95462.00
2018-06-04T00:08:57.157Z,95458.00
2018-06-04T00:11:28.301Z,95453.00
2018-06-04T00:13:59.704Z,95459.00
2018-06-04T00:16:40.223Z,95455.00
2018-06-04T00:19:11.665Z,95446.00
2018-06-04T00:21:42.831Z,95446.00
2018-06-04T00:24:14.206Z,95442.00
2018-06-04T00:26:45.328Z,95440.00
2018-06-04T00:29:16.388Z,95445.00
2018-06-04T00:31:47.644Z,95439.00
2018-06-04T00:34:18.769Z,95432.00
2018-06-04T00:36:49.818Z,95435.00
2018-06-04T00:39:20.993Z,95430.00
2018-06-04T00:41:52.089Z,95431.00
2018-06-04T00:44:23.199Z,95432.00
2018-06-04T00:46:54.476Z,95431.00
2018-06-04T00:49:25.516Z,95430.00
2018-06-04T00:51:56.540Z,95422.00
2018-06-04T00:54:27.749Z,95426.00
2018-06-04T00:56:58.845Z,95425.00
2018-06-04T00:59:29.983Z,95424.00
2018-06-04T01:02:01.173Z,95420.00
2018-06-04T01:04:33.727Z,95426.00
2018-06-04T01:07:04.848Z,95422.00
2018-06-04T01:09:36.228Z,95423.00
2018-06-04T01:12:12.697Z,95417.00
2018-06-04T01:14:44.226Z,95418.00
2018-06-04T01:17:15.269Z,95419.00
2018-06-04T01:19:46.408Z,95423.00
2018-06-04T01:22:17.467Z,95416.00
2018-06-04T01:24:48.590Z,95418.00
2018-06-04T01:27:19.606Z,95421.00
2018-06-04T01:29:50.796Z,95415.00
2018-06-04T01:32:21.995Z,95413.00
2018-06-04T01:34:53.476Z,95411.00
2018-06-04T01:37:24.516Z,95407.00
2018-06-04T01:39:55.861Z,95405.00
2018-06-04T01:42:26.939Z,95407.00
2018-06-04T01:44:58.168Z,95399.00
2018-06-04T01:47:29.273Z,95396.00
2018-06-04T01:50:00.485Z,95393.00
2018-06-04T01:52:32.784Z,95391.00
2018-06-04T01:55:03.976Z,95390.00
2018-06-04T01:57:35.237Z,95389.00
2018-06-04T02:00:30.202Z,95389.00
2018-06-04T02:03:01.285Z,95389.00
2018-06-04T02:05:32.578Z,95391.00
2018-06-04T02:08:03.672Z,95392.00
2018-06-04T02:10:34.778Z,95392.00
2018-06-04T02:13:06.005Z,95387.00
2018-06-04T02:15:37.125Z,95387.00
2018-06-04T02:18:08.504Z,95382.00
2018-06-04T02:20:40.171Z,95379.00
2018-06-04T02:23:11.320Z,95377.00
2018-06-04T02:25:42.413Z,95373.00
2018-06-04T02:28:13.544Z,95378.00
2018-06-04T02:30:44.954Z,95375.00
2018-06-04T02:33:25.357Z,95372.00
2018-06-04T02:35:56.374Z,95373.00
2018-06-04T02:38:27.397Z,95377.00
2018-06-04T02:40:58.486Z,95373.00
2018-06-04T02:43:29.688Z,95374.00
2018-06-04T02:46:03.229Z,95371.00
2018-06-04T02:48:34.469Z,95368.00
2018-06-04T02:51:05.620Z,95365.00
2018-06-04T02:53:36.712Z,95367.00
2018-06-04T02:56:08.165Z,95364.00
2018-06-04T02:58:39.352Z,95357.00
2018-06-04T03:01:29.499Z,95362.00
2018-06-04T03:04:00.590Z,95355.00
2018-06-04T03:06:31.710Z,95357.00
2018-06-04T03:09:02.921Z,95361.00
2018-06-04T03:11:34.117Z,95360.00
2018-06-04T03:14:06.136Z,95354.00
2018-06-04T03:16:37.496Z,95363.00
2018-06-04T03:19:08.808Z,95366.00
2018-06-04T03:21:39.996Z,95367.00
2018-06-04T03:24:11.021Z,95364.00
2018-06-04T03:26:42.469Z,95362.00
2018-06-04T03:29:13.516Z,95355.00
2018-06-04T03:31:44.473Z,95352.00
2018-06-04T03:34:15.576Z,95352.00
2018-06-04T03:36:46.620Z,95354.00
2018-06-04T03:39:17.780Z,95354.00
2018-06-04T03:41:49.203Z,95357.00
2018-06-04T03:44:20.180Z,95361.00
2018-06-04T03:46:51.123Z,95358.00
2018-06-04T03:49:27.100Z,95356.00
2018-06-04T03:51:58.270Z,95356.00
2018-06-04T03:54:29.354Z,95357.00
2018-06-04T03:57:00.439Z,95354.00
2018-06-04T03:59:31.547Z,95360.00
2018-06-04T04:02:02.728Z,95355.00
2018-06-04T04:04:33.761Z,95357.00
2018-06-04T04:08:07.744Z,95356.00
2018-06-04T04:10:38.885Z,95353.00
2018-06-04T04:13:10.259Z,95348.00
2018-06-04T04:15:41.193Z,95348.00
2018-06-04T04:18:12.315Z,95348.00
2018-06-04T04:20:43.539Z,95351.00
2018-06-04T04:23:14.726Z,95354.00
2018-06-04T04:25:45.750Z,95347.00
2018-06-04T04:28:16.697Z,95349.00
2018-06-04T04:30:47.873Z,95347.00
2018-06-04T04:33:19.174Z,95348.00
2018-06-04T04:35:50.032Z,95350.00
2018-06-04T04:38:21.220Z,95351.00
2018-06-04T04:40:52.241Z,95346.00
2018-06-04T04:43:23.262Z,95351.00
2018-06-04T04:45:54.623Z,95349.00
2018-06-04T04:48:25.936Z,95350.00
2018-06-04T04:50:56.966Z,95345.00
2018-06-04T04:53:28.077Z,95347.00
2018-06-04T04:55:59.173Z,95352.00
2018-06-04T04:58:30.291Z,95355.00
2018-06-04T05:01:01.393Z,95353.00
2018-06-04T05:03:32.516Z,95349.00
2018-06-04T05:06:03.648Z,95348.00
2018-06-04T05:08:35.571Z,95348.00
2018-06-04T05:11:06.619Z,95346.00
2018-06-04T05:13:37.672Z,95342.00
2018-06-04T05:16:08.863Z,95341.00
2018-06-04T05:18:40.000Z,95347.00
2018-06-04T05:21:11.032Z,95342.00
2018-06-04T05:23:48.813Z,95341.00
2018-06-04T05:26:19.755Z,95343.00
2018-06-04T05:28:51.328Z,95345.00
2018-06-04T05:31:22.450Z,95346.00
2018-06-04T05:33:53.694Z,95351.00
2018-06-04T05:36:24.772Z,95351.00
2018-06-04T05:38:56.093Z,95350.00
2018-06-04T05:41:27.161Z,95350.00
2018-06-04T05:43:58.288Z,95350.00
2018-06-04T05:46:38.328Z,95347.00
2018-06-04T05:49:09.463Z,95345.00
2018-06-04T05:51:40.584Z,95343.00
2018-06-04T05:54:12.061Z,95342.00
2018-06-04T05:56:42.894Z,95342.00
2018-06-04T05:59:13.777Z,95336.00
2018-06-04T06:01:44.591Z,95336.00
2018-06-04T06:04:15.727Z,95332.00
2018-06-04T06:06:46.548Z,95330.00
2018-06-04T06:09:17.656Z,95326.00
2018-06-04T06:11:54.305Z,95321.00
2018-06-04T06:14:25.538Z,95322.00
2018-06-04T06:16:56.640Z,95320.00
2018-06-04T06:19:28.098Z,95313.00
2018-06-04T06:21:59.349Z,95314.00
2018-06-04T06:24:45.316Z,95314.00
2018-06-04T06:27:16.488Z,95308.00
2018-06-04T06:29:47.668Z,95311.00
2018-06-04T06:32:18.777Z,95308.00
2018-06-04T06:34:50.129Z,95309.00
2018-06-04T06:37:21.220Z,95306.00
2018-06-04T06:39:52.885Z,95312.00
2018-06-04T06:42:24.253Z,95313.00
2018-06-04T06:44:56.108Z,95305.00
2018-06-04T06:47:27.162Z,95302.00
2018-06-04T06:49:58.287Z,95298.00
2018-06-04T06:52:29.232Z,95296.00
2018-06-04T06:55:00.496Z,95291.00
2018-06-04T06:57:31.692Z,95292.00
2018-06-04T07:00:03.118Z,95292.00
2018-06-04T07:02:45.254Z,95279.00
2018-06-04T07:05:16.635Z,95280.00
2018-06-04T07:07:47.865Z,95277.00
2018-06-04T07:10:23.092Z,95281.00
2018-06-04T07:12:54.509Z,95285.00
2018-06-04T07:15:25.630Z,95277.00
2018-06-04T07:17:56.908Z,95270.00
2018-06-04T07:20:27.921Z,95271.00
2018-06-04T07:22:59.140Z,95270.00
2018-06-04T07:25:30.324Z,95271.00
2018-06-04T07:28:01.457Z,95269.00
2018-06-04T07:30:32.867Z,95275.00
2018-06-04T07:33:04.057Z,95272.00
2018-06-04T07:35:35.100Z,95270.00
2018-06-04T07:38:06.336Z,95270.00
2018-06-04T07:40:37.599Z,95269.00
2018-06-04T07:43:10.152Z,95271.00
2018-06-04T07:45:41.656Z,95268.00
2018-06-04T07:48:12.844Z,95269.00
2018-06-04T17:48:52.152Z,94914.00
2018-06-04T17:51:24.898Z,94911.00
2018-06-04T17:54:10.082Z,94908.00
2018-06-04T17:56:41.339Z,94912.00
2018-06-04T17:59:13.815Z,94909.00
2018-06-04T18:02:01.866Z,94914.00
2018-06-04T18:04:34.428Z,94914.00
2018-06-04T18:07:05.624Z,94917.00
2018-06-04T18:09:37.470Z,94917.00
2018-06-04T18:12:11.474Z,94920.00
2018-06-04T18:14:43.674Z,94918.00
2018-06-04T18:17:22.470Z,94922.00
2018-06-04T18:19:54.965Z,94925.00
2018-06-04T18:22:30.858Z,94930.00
2018-06-04T18:25:03.176Z,94925.00
2018-06-04T18:27:36.347Z,94929.00
2018-06-04T18:30:08.899Z,94936.00
2018-06-04T18:32:40.450Z,94934.00
2018-06-04T18:35:13.408Z,94937.00
2018-06-04T18:37:44.591Z,94936.00
2018-06-04T18:40:15.832Z,94930.00
2018-06-04T18:43:04.382Z,94938.00
2018-06-04T18:45:35.843Z,94938.00
2018-06-04T18:48:06.732Z,94939.00
2018-06-04T18:50:37.975Z,94941.00
2018-06-04T18:53:09.348Z,94948.00
2018-06-04T18:55:40.534Z,94953.00
2018-06-04T18:58:11.772Z,94959.00
2018-06-04T19:00:43.404Z,94961.00
2018-06-04T19:03:14.570Z,94962.00
2018-06-04T19:05:45.821Z,94972.00
2018-06-04T19:08:18.493Z,94968.00
2018-06-04T19:10:49.914Z,94974.00
2018-06-04T19:13:31.191Z,94976.00
2018-06-04T19:16:04.221Z,94982.00
2018-06-04T19:18:36.048Z,94977.00
2018-06-04T19:21:07.199Z,94980.00
2018-06-04T19:23:38.236Z,94982.00
2018-06-04T19:26:10.867Z,94986.00
2018-06-04T19:28:41.972Z,94989.00
2018-06-04T19:31:13.277Z,94996.00
2018-06-04T19:33:44.265Z,95001.00
2018-06-04T19:36:15.320Z,95009.00
2018-06-04T19:38:46.417Z,95010.00
2018-06-04T19:41:17.615Z,95011.00
2018-06-04T19:43:48.864Z,95021.00
2018-06-04T19:46:25.535Z,95016.00
2018-06-04T19:48:57.180Z,95017.00
2018-06-04T19:51:29.421Z,95025.00
2018-06-04T19:54:02.308Z,95022.00
2018-06-04T19:56:35.755Z,95021.00
2018-06-04T19:59:07.103Z,95026.00
2018-06-04T20:01:38.146Z,95030.00
2018-06-04T20:04:12.024Z,95029.00
2018-06-04T20:06:43.812Z,95030.00
2018-06-04T20:09:14.948Z,95038.00
2018-06-04T20:11:46.461Z,95037.00
2018-06-04T20:14:17.553Z,95038.00
2018-06-04T20:16:48.697Z,95044.00
2018-06-04T20:19:39.550Z,95042.00
2018-06-04T20:22:10.874Z,95044.00
2018-06-04T20:24:42.304Z,95048.00
2018-06-04T20:27:13.845Z,95052.00
2018-06-04T20:29:45.606Z,95057.00
2018-06-04T20:32:17.610Z,95048.00
2018-06-04T20:34:48.571Z,95050.00
2018-06-04T20:37:20.855Z,95054.00
2018-06-04T20:39:52.376Z,95057.00
2018-06-04T20:42:23.760Z,95061.00
2018-06-04T20:44:55.071Z,95062.00
2018-06-04T20:47:26.285Z,95069.00
2018-06-04T20:49:57.492Z,95071.00
2018-06-04T20:52:28.598Z,95075.00
2018-06-04T20:54:59.847Z,95083.00
2018-06-04T20:57:31.374Z,95079.00
2018-06-04T21:00:03.840Z,95083.00
2018-06-04T21:02:36.199Z,95082.00
2018-06-04T21:05:07.860Z,95080.00
2018-06-04T21:07:40.295Z,95084.00
2018-06-04T21:10:11.381Z,95077.00
2018-06-04T21:12:42.408Z,95083.00
2018-06-04T21:15:13.436Z,95083.00
2018-06-04T21:17:44.699Z,95082.00
2018-06-04T21:20:15.741Z,95079.00
2018-06-04T21:22:47.038Z,95085.00
2018-06-04T21:25:18.184Z,95085.00
2018-06-04T21:27:49.657Z,95088.00
2018-06-04T21:30:20.445Z,95092.00
2018-06-04T21:32:51.406Z,95087.00
2018-06-04T21:35:22.452Z,95095.00
2018-06-04T21:37:53.634Z,95100.00
2018-06-04T21:40:24.850Z,95098.00
2018-06-04T21:42:56.221Z,95100.00
2018-06-04T21:45:27.435Z,95099.00
2018-06-04T21:48:02.092Z,95097.00
2018-06-04T21:50:33.532Z,95102.00
2018-06-04T21:53:04.616Z,95097.00
2018-06-04T21:55:35.833Z,95101.00
2018-06-04T21:58:07.611Z,95102.00
2018-06-04T22:00:56.190Z,95106.00
2018-06-04T22:03:29.768Z,95108.00
2018-06-04T22:06:01.181Z,95113.00
2018-06-04T22:08:32.578Z,95108.00
2018-06-04T22:11:06.321Z,95112.00
2018-06-04T22:13:37.800Z,95116.00
2018-06-04T22:16:15.326Z,95113.00
2018-06-04T22:18:46.754Z,95114.00
2018-06-04T22:21:17.985Z,95115.00
2018-06-04T22:23:49.092Z,95115.00
2018-06-04T22:26:20.291Z,95120.00
2018-06-04T22:28:51.815Z,95117.00
2018-06-04T22:31:23.001Z,95112.00
2018-06-04T22:33:54.230Z,95111.00
2018-06-04T22:36:25.387Z,95116.00
2018-06-04T22:38:56.650Z,95114.00
2018-06-04T22:41:29.713Z,95123.00
2018-06-04T22:44:03.256Z,95114.00
2018-06-04T22:46:34.844Z,95116.00
2018-06-04T22:49:06.879Z,95113.00
2018-06-04T22:51:37.892Z,95114.00
2018-06-04T22:54:08.945Z,95117.00
2018-06-04T22:56:40.041Z,95114.00
2018-06-04T22:59:11.166Z,95109.00
2018-06-04T23:01:42.373Z,95113.00
2018-06-04T23:04:27.469Z,95115.00
2018-06-04T23:06:58.676Z,95112.00
2018-06-04T23:09:29.796Z,95112.00
2018-06-04T23:12:01.020Z,95120.00
2018-06-04T23:14:32.196Z,95109.00
2018-06-04T23:17:15.596Z,95113.00
2018-06-04T23:19:46.909Z,95110.00
2018-06-04T23:22:18.126Z,95120.00
2018-06-04T23:24:49.410Z,95121.00
2018-06-04T23:27:20.560Z,95122.00
2018-06-04T23:29:52.147Z,95120.00
2018-06-04T23:32:23.164Z,95115.00
2018-06-04T23:34:54.656Z,95115.00
2018-06-04T23:37:25.657Z,95114.00
2018-06-04T23:39:56.687Z,95112.00
2018-06-04T23:42:27.894Z,95110.00
2018-06-04T23:44:59.144Z,95103.00
2018-06-04T23:47:30.447Z,95101.00
2018-06-04T23:50:01.516Z,95101.00
2018-06-04T23:52:36.668Z,95096.00
2018-06-04T23:55:08.008Z,95094.00
2018-06-04T23:57:39.306Z,95098.00
